createdAt,value
2022-12-29T00:02:15.294Z,6.03
2022-12-29T00:04:42.702Z,5.75
2022-12-29T00:07:10.188Z,8.18
2022-12-29T00:09:37.436Z,5.90
2022-12-29T00:12:05.536Z,5.18
2022-12-29T00:14:51.443Z,10.35
2022-12-29T00:17:18.596Z,6.60
2022-12-29T00:20:04.121Z,3.40
2022-12-29T00:22:50.178Z,2.15
2022-12-29T00:25:35.918Z,2.65
2022-12-29T00:28:21.416Z,3.78
2022-12-29T00:31:06.927Z,6.75
2022-12-29T00:33:53.910Z,2.53
2022-12-29T00:36:29.643Z,3.72
2022-12-29T00:39:20.888Z,4.20
2022-12-29T00:42:07.773Z,6.35
2022-12-29T00:44:34.848Z,5.90
2022-12-29T00:47:04.399Z,5.50
2022-12-29T00:49:34.207Z,8.75
2022-12-29T00:52:06.062Z,5.78
2022-12-29T00:54:36.022Z,5.75
2022-12-29T00:57:04.809Z,4.25
2022-12-29T00:59:32.127Z,4.97
2022-12-29T01:01:59.889Z,3.20
2022-12-29T01:04:29.146Z,1.85
2022-12-29T01:06:56.152Z,3.13
2022-12-29T01:09:41.629Z,2.38
2022-12-29T01:12:10.399Z,3.58
2022-12-29T01:14:38.295Z,6.32
2022-12-29T01:17:05.964Z,7.13
2022-12-29T01:19:33.582Z,5.22
2022-12-29T01:22:01.473Z,4.65
2022-12-29T01:24:29.237Z,2.75
2022-12-29T01:26:56.379Z,9.85
2022-12-29T01:29:23.552Z,5.45
2022-12-29T01:31:51.230Z,9.07
2022-12-29T01:34:19.581Z,10.45
2022-12-29T01:36:46.965Z,5.18
2022-12-29T01:39:14.585Z,12.02
2022-12-29T01:41:42.288Z,11.50
2022-12-29T01:44:45.366Z,6.03
2022-12-29T01:47:12.965Z,12.55
2022-12-29T01:49:40.459Z,5.57
2022-12-29T01:52:09.110Z,8.27
2022-12-29T01:54:44.065Z,5.45
2022-12-29T01:57:17.523Z,7.07
2022-12-29T01:59:54.645Z,3.47
2022-12-29T02:02:22.049Z,2.55
2022-12-29T02:04:49.286Z,7.40
2022-12-29T02:07:20.964Z,12.27
2022-12-29T02:09:50.480Z,8.30
2022-12-29T02:12:21.161Z,8.37
2022-12-29T02:14:53.290Z,9.95
2022-12-29T02:17:26.328Z,8.15
2022-12-29T02:20:21.209Z,5.47
2022-12-29T02:23:33.073Z,6.03
2022-12-29T02:26:29.231Z,11.43
2022-12-29T02:28:56.353Z,6.47
2022-12-29T02:31:32.849Z,8.18
2022-12-29T02:34:08.376Z,10.63
2022-12-29T02:36:53.934Z,6.47
2022-12-29T02:39:33.139Z,3.80
2022-12-29T02:42:28.680Z,9.57
2022-12-29T02:45:12.111Z,11.05
2022-12-29T02:48:11.289Z,7.07
2022-12-29T02:50:42.186Z,8.82
2022-12-29T02:53:14.370Z,9.40
2022-12-29T02:55:49.916Z,8.98
2022-12-29T02:58:23.785Z,9.05
2022-12-29T03:01:11.900Z,7.88
2022-12-29T03:04:01.698Z,9.30
2022-12-29T03:06:34.710Z,6.85
2022-12-29T03:09:18.279Z,3.92
2022-12-29T03:12:08.985Z,6.50
2022-12-29T03:15:18.329Z,4.43
2022-12-29T03:17:53.991Z,8.73
2022-12-29T03:20:38.181Z,9.80
2022-12-29T03:23:07.296Z,7.07
2022-12-29T03:25:48.035Z,11.05
2022-12-29T03:28:24.412Z,6.70
2022-12-29T03:30:51.701Z,10.80
2022-12-29T03:33:25.125Z,11.50
2022-12-29T03:36:00.048Z,10.57
2022-12-29T03:39:06.956Z,9.52
2022-12-29T03:41:35.565Z,8.07
2022-12-29T03:44:06.701Z,10.70
2022-12-29T03:46:35.133Z,6.82
2022-12-29T03:49:03.449Z,8.13
2022-12-29T03:51:30.899Z,7.95
2022-12-29T03:53:58.022Z,13.05
2022-12-29T03:56:25.561Z,9.52
2022-12-29T03:58:53.867Z,9.35
2022-12-29T04:01:29.539Z,10.57
2022-12-29T04:03:56.757Z,8.60
2022-12-29T04:06:24.778Z,6.88
2022-12-29T04:08:58.990Z,7.13
2022-12-29T04:11:32.676Z,9.40
2022-12-29T04:14:00.936Z,5.63
2022-12-29T04:16:29.791Z,13.43
2022-12-29T04:18:57.060Z,16.40
2022-12-29T04:21:24.007Z,11.90
2022-12-29T04:23:51.707Z,12.50
2022-12-29T04:26:18.816Z,8.65
2022-12-29T04:29:08.887Z,10.60
2022-12-29T04:31:44.738Z,12.98
2022-12-29T04:34:12.268Z,8.43
2022-12-29T04:36:40.748Z,12.48
2022-12-29T04:39:08.393Z,12.68
2022-12-29T04:41:36.512Z,7.93
2022-12-29T04:44:05.304Z,9.48
2022-12-29T04:46:32.330Z,15.65
2022-12-29T04:49:08.849Z,12.65
2022-12-29T04:51:56.065Z,13.85
2022-12-29T04:54:23.852Z,16.02
2022-12-29T04:56:58.643Z,12.63
2022-12-29T04:59:25.711Z,12.48
2022-12-29T05:01:57.401Z,19.80
2022-12-29T05:04:24.659Z,12.27
2022-12-29T05:06:51.788Z,15.07
2022-12-29T05:09:18.775Z,19.73
2022-12-29T05:11:45.914Z,15.88
2022-12-29T05:14:13.402Z,14.98
2022-12-29T05:16:41.764Z,11.07
2022-12-29T05:19:09.672Z,12.90
2022-12-29T05:21:36.753Z,15.27
2022-12-29T05:24:04.162Z,8.18
2022-12-29T05:26:31.324Z,15.98
2022-12-29T05:29:20.247Z,12.45
2022-12-29T05:31:47.466Z,12.98
2022-12-29T05:34:14.967Z,6.75
2022-12-29T05:36:42.106Z,15.15
2022-12-29T05:39:10.797Z,16.33
2022-12-29T05:41:38.801Z,11.15
2022-12-29T05:44:24.826Z,9.27
2022-12-29T05:47:12.180Z,17.45
2022-12-29T05:50:05.669Z,8.65
2022-12-29T05:52:59.079Z,16.77
2022-12-29T05:55:26.213Z,10.77
2022-12-29T05:57:55.921Z,12.90
2022-12-29T06:00:23.250Z,7.22
2022-12-29T06:02:50.661Z,8.80
2022-12-29T06:05:18.592Z,10.00
2022-12-29T06:07:46.519Z,13.27
2022-12-29T06:12:55.344Z,15.07
2022-12-29T06:15:22.967Z,20.08
2022-12-29T06:17:51.363Z,13.55
2022-12-29T06:20:18.529Z,16.52
2022-12-29T06:22:46.531Z,19.98
2022-12-29T06:25:14.473Z,18.48
2022-12-29T06:27:43.763Z,16.92
2022-12-29T06:30:11.852Z,19.98
2022-12-29T06:32:40.399Z,18.90
2022-12-29T06:35:10.322Z,14.88
2022-12-29T06:37:42.210Z,21.20
2022-12-29T06:40:09.772Z,20.13
2022-12-29T06:43:06.077Z,45.60
2022-12-29T06:45:50.825Z,19.27
2022-12-29T06:48:17.816Z,20.75
2022-12-29T06:50:44.835Z,24.67
2022-12-29T06:53:11.858Z,8.27
2022-12-29T06:55:38.851Z,20.45
2022-12-29T06:58:05.896Z,17.50
2022-12-29T07:00:32.837Z,22.30
2022-12-29T07:03:00.474Z,18.17
2022-12-29T07:05:28.891Z,16.58
2022-12-29T07:07:56.474Z,13.52
2022-12-29T07:10:23.977Z,8.13
2022-12-29T07:12:51.211Z,13.25
2022-12-29T07:15:18.639Z,22.33
2022-12-29T07:17:45.824Z,20.42
2022-12-29T07:20:12.901Z,17.95
2022-12-29T07:22:39.935Z,15.57
2022-12-29T07:25:07.297Z,7.70
2022-12-29T07:27:34.285Z,19.15
2022-12-29T07:30:01.305Z,12.63
2022-12-29T07:32:29.325Z,5.28
2022-12-29T07:34:56.339Z,22.00
2022-12-29T07:37:23.331Z,16.70
2022-12-29T07:39:50.298Z,13.68
2022-12-29T07:42:17.384Z,12.05
2022-12-29T07:44:50.848Z,13.43
2022-12-29T07:47:36.456Z,15.60
2022-12-29T07:50:03.839Z,16.70
2022-12-29T07:52:31.285Z,9.68
2022-12-29T07:54:58.343Z,14.82
2022-12-29T07:57:31.459Z,10.25
2022-12-29T07:59:59.990Z,11.75
2022-12-29T08:02:30.818Z,17.92
2022-12-29T08:04:57.942Z,18.40
2022-12-29T08:07:25.025Z,37.17
2022-12-29T08:09:52.008Z,13.75
2022-12-29T08:12:19.228Z,17.05
2022-12-29T08:14:46.431Z,11.20
2022-12-29T08:17:13.506Z,15.05
2022-12-29T08:19:41.181Z,5.50
2022-12-29T08:22:08.328Z,5.80
2022-12-29T08:24:35.317Z,11.32
2022-12-29T08:27:10.854Z,6.75
2022-12-29T08:29:43.139Z,7.05
2022-12-29T08:32:10.291Z,6.90
2022-12-29T08:34:37.321Z,18.55
2022-12-29T08:37:04.881Z,9.40
2022-12-29T08:39:31.936Z,4.65
2022-12-29T08:41:59.243Z,5.70
2022-12-29T08:44:26.148Z,2.65
2022-12-29T08:46:53.503Z,9.10
2022-12-29T08:49:20.607Z,12.82
2022-12-29T08:51:47.604Z,9.40
2022-12-29T08:54:14.681Z,10.75
2022-12-29T08:56:41.755Z,7.35
2022-12-29T08:59:09.341Z,9.10
2022-12-29T09:01:41.606Z,7.93
2022-12-29T09:04:17.856Z,10.20
2022-12-29T09:06:46.545Z,12.13
2022-12-29T09:09:14.171Z,10.60
2022-12-29T09:11:41.988Z,7.35
2022-12-29T09:14:09.254Z,13.30
2022-12-29T09:16:37.306Z,6.75
2022-12-29T09:19:05.004Z,7.07
2022-12-29T09:21:32.817Z,8.55
2022-12-29T09:23:59.918Z,9.70
2022-12-29T09:26:26.967Z,9.45
2022-12-29T09:28:53.983Z,9.27
2022-12-29T09:31:21.114Z,9.65
2022-12-29T09:33:48.423Z,17.25
2022-12-29T09:36:15.432Z,11.45
2022-12-29T09:38:43.180Z,16.90
2022-12-29T09:41:38.008Z,17.88
2022-12-29T09:44:24.701Z,10.57
2022-12-29T09:46:55.034Z,12.40
2022-12-29T09:52:16.662Z,9.38
2022-12-29T09:55:00.570Z,13.50
2022-12-29T09:57:39.728Z,11.27
2022-12-29T10:00:20.577Z,10.00
2022-12-29T10:02:53.863Z,11.18
2022-12-29T10:05:30.123Z,8.60
2022-12-29T10:08:04.657Z,8.07
2022-12-29T10:10:39.550Z,7.40
2022-12-29T10:13:27.717Z,6.63
2022-12-29T10:16:19.144Z,10.77
2022-12-29T10:18:58.781Z,8.25
2022-12-29T10:22:04.144Z,9.82
2022-12-29T10:24:33.731Z,8.10
2022-12-29T10:27:00.871Z,6.75
2022-12-29T10:29:41.837Z,6.30
2022-12-29T10:32:35.931Z,6.10
2022-12-29T10:35:14.164Z,8.85
2022-12-29T10:38:02.639Z,5.25
2022-12-29T10:40:47.689Z,4.28
2022-12-29T10:43:26.735Z,6.35
2022-12-29T10:46:00.831Z,5.07
2022-12-29T10:48:36.531Z,6.95
2022-12-29T10:51:07.165Z,6.93
2022-12-29T10:53:47.403Z,6.80
2022-12-29T10:56:26.799Z,3.78
2022-12-29T10:58:56.967Z,7.70
2022-12-29T11:04:18.136Z,8.23
2022-12-29T11:06:45.225Z,9.35
2022-12-29T11:09:17.400Z,9.63
2022-12-29T11:11:44.536Z,13.77
2022-12-29T11:14:31.876Z,11.70
2022-12-29T11:17:01.016Z,12.25
2022-12-29T11:19:36.123Z,11.00
2022-12-29T11:22:15.583Z,10.10
2022-12-29T11:24:47.882Z,12.00
2022-12-29T11:27:24.555Z,10.00
2022-12-29T11:29:53.702Z,10.25
2022-12-29T11:32:28.138Z,12.52
2022-12-29T11:34:56.843Z,10.68
2022-12-29T11:37:41.294Z,13.02
2022-12-29T11:40:19.164Z,10.45
2022-12-29T11:42:56.285Z,13.48
2022-12-29T11:45:26.264Z,13.75
2022-12-29T11:47:57.626Z,16.02
2022-12-29T11:50:35.255Z,13.02
2022-12-29T11:53:32.866Z,15.27
2022-12-29T11:56:47.532Z,13.25
2022-12-29T11:59:31.099Z,14.25
2022-12-29T12:02:00.770Z,22.65
2022-12-29T12:04:31.914Z,20.40
2022-12-29T12:07:06.717Z,14.38
2022-12-29T12:09:38.092Z,15.48
2022-12-29T12:12:10.068Z,15.88
2022-12-29T12:14:57.706Z,15.82
2022-12-29T12:17:47.532Z,15.90
2022-12-29T12:20:53.059Z,16.42
2022-12-29T12:24:19.468Z,18.25
2022-12-29T12:27:20.497Z,14.57
2022-12-29T12:29:59.374Z,18.83
2022-12-29T12:32:44.343Z,15.50
2022-12-29T12:35:21.951Z,16.27
2022-12-29T12:38:17.047Z,14.68
2022-12-29T12:41:01.033Z,14.88
2022-12-29T12:43:43.395Z,11.77
2022-12-29T12:46:19.403Z,13.80
2022-12-29T12:49:13.165Z,12.55
2022-12-29T12:52:22.351Z,14.20
2022-12-29T12:54:55.332Z,14.50
2022-12-29T12:57:46.712Z,13.38
2022-12-29T13:00:19.174Z,16.10
2022-12-29T13:02:58.624Z,14.10
2022-12-29T13:05:30.585Z,16.47
2022-12-29T13:08:28.048Z,18.70
2022-12-29T13:11:14.629Z,17.77
2022-12-29T13:13:50.814Z,15.13
2022-12-29T13:16:51.426Z,12.40
2022-12-29T13:19:36.424Z,14.95
2022-12-29T13:22:07.193Z,12.50
2022-12-29T13:24:49.632Z,11.30
2022-12-29T13:27:24.961Z,11.00
2022-12-29T13:30:06.586Z,11.63
2022-12-29T13:32:48.859Z,15.13
2022-12-29T13:35:31.560Z,11.27
2022-12-29T13:38:10.530Z,13.52
2022-12-29T13:40:42.970Z,12.07
2022-12-29T13:43:10.712Z,16.13
2022-12-29T13:45:38.326Z,15.35
2022-12-29T13:48:21.371Z,14.50
2022-12-29T13:51:01.116Z,15.63
2022-12-29T13:53:42.908Z,13.73
2022-12-29T13:56:42.563Z,12.68
2022-12-29T13:59:42.202Z,13.07
2022-12-29T14:02:21.699Z,12.63
2022-12-29T14:05:06.455Z,11.43
2022-12-29T14:07:44.579Z,16.73
2022-12-29T14:10:46.606Z,12.25
2022-12-29T14:13:24.667Z,13.30
2022-12-29T14:16:03.157Z,13.95
2022-12-29T14:18:34.502Z,19.20
2022-12-29T14:21:16.915Z,21.33
2022-12-29T14:23:47.812Z,16.00
2022-12-29T14:26:31.272Z,15.57
2022-12-29T14:29:36.963Z,18.05
2022-12-29T14:32:26.331Z,16.55
2022-12-29T14:34:54.555Z,14.45
2022-12-29T14:37:27.845Z,13.95
2022-12-29T14:40:14.056Z,13.35
2022-12-29T14:42:44.496Z,16.58
2022-12-29T14:45:14.799Z,19.15
2022-12-29T14:47:47.504Z,18.38
2022-12-29T14:50:22.757Z,20.50
2022-12-29T14:53:03.444Z,18.17
2022-12-29T14:55:58.233Z,15.18
2022-12-29T14:58:40.391Z,18.67
2022-12-29T15:01:20.399Z,20.52
2022-12-29T15:03:53.414Z,14.82
2022-12-29T15:06:30.269Z,15.45
2022-12-29T15:09:21.516Z,18.85
2022-12-29T15:11:56.256Z,24.33
2022-12-29T15:14:59.650Z,17.25
2022-12-29T15:17:32.144Z,19.65
2022-12-29T15:20:02.476Z,23.88
2022-12-29T15:22:31.774Z,20.27
2022-12-29T15:24:59.203Z,15.85
2022-12-29T15:27:27.579Z,24.08
2022-12-29T15:30:13.882Z,25.20
2022-12-29T15:32:45.520Z,16.42
2022-12-29T15:35:38.410Z,23.02
2022-12-29T15:38:17.810Z,21.58
2022-12-29T15:40:46.594Z,22.07
2022-12-29T15:43:22.612Z,19.75
2022-12-29T15:45:51.965Z,19.38
2022-12-29T15:48:22.546Z,20.53
2022-12-29T15:50:51.190Z,25.48
2022-12-29T15:53:29.652Z,23.20
2022-12-29T15:56:17.124Z,27.75
2022-12-29T15:58:50.163Z,20.23
2022-12-29T16:01:35.141Z,20.95
2022-12-29T16:04:06.887Z,22.88
2022-12-29T16:06:45.694Z,28.45
2022-12-29T16:09:37.095Z,25.08
2022-12-29T16:12:07.961Z,19.70
2022-12-29T16:14:47.468Z,22.23
2022-12-29T16:17:20.691Z,26.37
2022-12-29T16:19:55.502Z,24.73
2022-12-29T16:22:31.651Z,30.70
2022-12-29T16:25:04.753Z,28.90
2022-12-29T16:27:41.665Z,25.20
2022-12-29T16:30:20.880Z,19.13
2022-12-29T16:32:56.800Z,31.83
2022-12-29T16:35:26.861Z,27.95
2022-12-29T16:38:18.403Z,28.48
2022-12-29T16:41:05.620Z,35.20
2022-12-29T16:43:35.948Z,30.67
2022-12-29T16:48:46.869Z,28.15
2022-12-29T16:51:18.361Z,32.30
2022-12-29T16:53:54.772Z,35.03
2022-12-29T16:56:26.642Z,36.17
2022-12-29T16:59:10.325Z,33.65
2022-12-29T17:01:39.668Z,33.08
2022-12-29T17:04:10.033Z,35.47
2022-12-29T17:09:17.364Z,27.75
2022-12-29T17:14:45.643Z,34.33
2022-12-29T17:17:15.087Z,27.60
2022-12-29T17:19:46.031Z,37.03
2022-12-29T17:22:25.992Z,30.40
2022-12-29T17:24:58.571Z,27.45
2022-12-29T17:27:32.398Z,27.02
2022-12-29T17:30:04.057Z,31.38
2022-12-29T17:32:31.442Z,30.27
2022-12-29T17:34:58.437Z,31.98
2022-12-29T17:37:25.423Z,27.58
2022-12-29T17:39:52.911Z,28.77
2022-12-29T17:42:20.401Z,29.20
2022-12-29T17:44:48.038Z,26.33
2022-12-29T17:47:16.013Z,32.75
2022-12-29T17:49:46.492Z,24.58
2022-12-29T17:52:14.867Z,29.85
2022-12-29T17:54:52.392Z,32.65
2022-12-29T17:57:21.155Z,26.40
2022-12-29T17:59:48.576Z,24.55
2022-12-29T18:02:26.781Z,23.45
2022-12-29T18:04:54.394Z,25.10
2022-12-29T18:07:22.329Z,33.75
2022-12-29T18:09:49.651Z,29.80
2022-12-29T18:12:28.689Z,28.65
2022-12-29T18:14:56.071Z,27.02
2022-12-29T18:17:23.591Z,30.05
2022-12-29T18:19:54.976Z,25.90
2022-12-29T18:22:24.005Z,36.63
2022-12-29T18:24:52.100Z,36.00
2022-12-29T18:27:19.727Z,32.33
2022-12-29T18:29:47.094Z,22.17
2022-12-29T18:32:15.195Z,27.27
2022-12-29T18:34:42.876Z,27.75
2022-12-29T18:37:12.069Z,25.33
2022-12-29T18:39:39.230Z,25.77
2022-12-29T18:42:08.083Z,27.40
2022-12-29T18:44:35.563Z,28.63
2022-12-29T18:47:02.727Z,32.42
2022-12-29T18:49:29.770Z,28.27
2022-12-29T18:51:56.882Z,30.05
2022-12-29T18:54:32.328Z,27.80
2022-12-29T18:56:59.661Z,26.83
2022-12-29T18:59:26.858Z,23.90
2022-12-29T19:01:54.041Z,34.28
2022-12-29T19:04:22.507Z,33.38
2022-12-29T19:06:49.833Z,33.95
2022-12-29T19:09:16.985Z,31.15
2022-12-29T19:11:44.152Z,30.00
2022-12-29T19:14:17.273Z,29.65
2022-12-29T19:16:44.916Z,26.15
2022-12-29T19:19:15.524Z,31.92
2022-12-29T19:21:42.969Z,32.03
2022-12-29T19:24:09.977Z,34.05
2022-12-29T19:26:39.522Z,30.10
2022-12-29T19:29:09.223Z,22.90
2022-12-29T19:31:37.856Z,30.23
2022-12-29T19:34:04.965Z,25.35
2022-12-29T19:36:32.218Z,26.33
2022-12-29T19:38:59.415Z,34.13
2022-12-29T19:41:26.531Z,26.02
2022-12-29T19:43:53.579Z,26.55
2022-12-29T19:46:21.012Z,26.17
2022-12-29T19:48:48.299Z,34.00
2022-12-29T19:51:17.502Z,31.42
2022-12-29T19:53:48.531Z,27.23
2022-12-29T19:56:23.843Z,30.70
2022-12-29T19:58:54.517Z,29.80
2022-12-29T20:01:53.753Z,22.35
2022-12-29T20:04:31.214Z,32.03
2022-12-29T20:06:58.195Z,31.67
2022-12-29T20:09:25.124Z,31.27
2022-12-29T20:11:52.371Z,25.67
2022-12-29T20:14:19.631Z,29.63
2022-12-29T20:17:09.639Z,28.15
2022-12-29T20:19:36.617Z,31.77
2022-12-29T20:22:05.499Z,33.17
2022-12-29T20:24:34.218Z,33.10
2022-12-29T20:27:03.141Z,39.80
2022-12-29T20:29:39.010Z,32.67
2022-12-29T20:32:16.039Z,32.92
2022-12-29T20:34:44.318Z,26.40
2022-12-29T20:37:12.096Z,32.78
2022-12-29T20:39:41.656Z,26.10
2022-12-29T20:42:09.308Z,30.33
2022-12-29T20:44:36.882Z,32.90
2022-12-29T20:47:06.136Z,32.90
2022-12-29T20:49:35.428Z,36.13
2022-12-29T20:52:07.199Z,30.27
2022-12-29T20:54:39.148Z,35.38
2022-12-29T20:57:07.378Z,35.22
2022-12-29T20:59:34.556Z,35.53
2022-12-29T21:02:01.835Z,34.55
2022-12-29T21:04:43.825Z,37.60
2022-12-29T21:07:19.985Z,30.15
2022-12-29T21:09:47.696Z,40.85
2022-12-29T21:12:15.126Z,32.40
2022-12-29T21:14:45.584Z,37.53
2022-12-29T21:17:13.083Z,39.03
2022-12-29T21:19:40.210Z,39.75
2022-12-29T21:22:07.539Z,35.97
2022-12-29T21:24:34.814Z,26.15
2022-12-29T21:27:01.913Z,41.58
2022-12-29T21:29:28.881Z,32.72
2022-12-29T21:31:57.761Z,39.63
2022-12-29T21:34:28.109Z,34.13
2022-12-29T21:36:55.189Z,41.13
2022-12-29T21:39:22.192Z,37.70
2022-12-29T21:41:49.390Z,37.72
2022-12-29T21:44:34.985Z,32.10
2022-12-29T21:47:02.043Z,34.78
2022-12-29T21:49:29.049Z,40.20
2022-12-29T21:51:57.701Z,45.67
2022-12-29T21:54:45.845Z,33.60
2022-12-29T21:57:37.410Z,35.05
2022-12-29T22:00:28.244Z,37.47
2022-12-29T22:03:22.048Z,41.80
2022-12-29T22:06:10.005Z,39.20
2022-12-29T22:08:56.320Z,43.35
2022-12-29T22:11:41.819Z,39.30
2022-12-29T22:14:09.236Z,45.05
2022-12-29T22:16:36.323Z,34.75
2022-12-29T22:19:03.676Z,36.92
2022-12-29T22:21:30.773Z,37.33
2022-12-29T22:23:57.717Z,38.55
2022-12-29T22:26:24.815Z,45.50
2022-12-29T22:28:52.583Z,48.70
2022-12-29T22:31:30.618Z,45.40
2022-12-29T22:33:59.458Z,40.40
2022-12-29T22:36:27.966Z,41.70
2022-12-29T22:38:55.218Z,48.22
2022-12-29T22:41:22.482Z,39.50
2022-12-29T22:43:49.644Z,40.80
2022-12-29T22:46:16.824Z,44.13
2022-12-29T22:48:43.809Z,43.40
2022-12-29T22:51:10.864Z,45.95
2022-12-29T22:53:38.004Z,45.83
2022-12-29T22:56:12.876Z,45.85
2022-12-29T22:58:44.898Z,42.97
2022-12-29T23:01:13.959Z,48.03
2022-12-29T23:03:41.698Z,48.97
2022-12-29T23:06:12.217Z,38.55
2022-12-29T23:11:09.408Z,37.72
2022-12-29T23:13:36.675Z,42.55
2022-12-29T23:16:03.815Z,46.55
2022-12-29T23:18:31.016Z,40.75
2022-12-29T23:20:58.197Z,54.85
2022-12-29T23:23:48.884Z,39.33
2022-12-29T23:26:18.579Z,42.60
2022-12-29T23:28:45.761Z,43.47
2022-12-29T23:31:13.616Z,44.85
2022-12-29T23:33:41.125Z,44.75
2022-12-29T23:36:08.867Z,51.25
2022-12-29T23:38:35.943Z,26.27
2022-12-29T23:41:02.898Z,47.17
2022-12-29T23:43:29.939Z,49.63
2022-12-29T23:45:57.069Z,51.85
2022-12-29T23:48:24.096Z,46.97
2022-12-29T23:50:51.162Z,51.75
2022-12-29T23:53:18.176Z,47.92
2022-12-29T23:55:45.213Z,50.15
2022-12-29T23:58:12.253Z,40.97
